createdAt,value
2019-02-20T00:01:47.861Z,21.33
2019-02-20T00:04:17.505Z,21.20
2019-02-20T00:06:59.741Z,20.40
2019-02-20T00:09:29.399Z,22.27
2019-02-20T00:11:59.249Z,22.90
2019-02-20T00:14:32.692Z,20.53
2019-02-20T00:17:10.278Z,16.67
2019-02-20T00:19:39.174Z,20.87
2019-02-20T00:22:08.653Z,22.00
2019-02-20T00:24:36.824Z,22.77
2019-02-20T00:27:05.936Z,17.90
2019-02-20T00:29:37.590Z,17.30
2019-02-20T00:32:06.752Z,18.77
2019-02-20T00:34:39.022Z,21.67
2019-02-20T00:37:08.246Z,20.43
2019-02-20T00:39:37.643Z,16.57
2019-02-20T00:42:15.111Z,15.37
2019-02-20T00:45:12.538Z,17.57
2019-02-20T00:48:02.513Z,20.80
2019-02-20T00:50:35.016Z,13.10
2019-02-20T00:53:19.013Z,18.03
2019-02-20T00:55:48.149Z,22.47
2019-02-20T00:58:17.879Z,19.83
2019-02-20T01:00:49.304Z,18.47
2019-02-20T01:03:18.385Z,19.50
2019-02-20T01:05:50.470Z,18.17
2019-02-20T01:08:22.362Z,17.93
2019-02-20T01:10:50.256Z,21.10
2019-02-20T01:13:18.355Z,19.83
2019-02-20T01:15:49.329Z,22.80
2019-02-20T01:18:20.583Z,25.63
2019-02-20T01:20:52.904Z,17.90
2019-02-20T01:23:24.397Z,26.40
2019-02-20T01:25:53.528Z,16.07
2019-02-20T01:28:21.877Z,16.63
2019-02-20T01:30:52.961Z,17.87
2019-02-20T01:33:22.443Z,15.83
2019-02-20T01:36:16.805Z,17.40
2019-02-20T01:38:46.187Z,17.90
2019-02-20T01:41:15.997Z,13.83
2019-02-20T01:43:45.365Z,20.33
2019-02-20T01:46:15.566Z,20.23
2019-02-20T01:48:45.664Z,13.87
2019-02-20T01:51:14.188Z,15.23
2019-02-20T01:53:42.166Z,19.03
2019-02-20T01:56:11.287Z,19.37
2019-02-20T01:58:41.010Z,17.33
2019-02-20T02:01:10.665Z,15.30
2019-02-20T02:03:40.569Z,14.77
2019-02-20T02:06:08.677Z,17.63
2019-02-20T02:08:36.655Z,15.47
2019-02-20T02:11:05.917Z,16.93
2019-02-20T02:13:36.919Z,12.30
2019-02-20T02:16:08.407Z,14.67
2019-02-20T02:18:36.406Z,28.30
2019-02-20T02:21:05.226Z,32.83
2019-02-20T02:23:34.631Z,30.80
2019-02-20T02:26:10.874Z,28.00
2019-02-20T02:28:36.212Z,24.57
2019-02-20T02:31:05.345Z,23.43
2019-02-20T02:33:33.353Z,27.23
2019-02-20T02:36:02.571Z,23.70
2019-02-20T02:38:32.518Z,18.97
2019-02-20T02:41:01.610Z,21.50
2019-02-20T02:43:31.055Z,17.50
2019-02-20T02:46:01.350Z,21.60
2019-02-20T02:48:30.326Z,21.37
2019-02-20T02:50:59.131Z,20.90
2019-02-20T02:53:30.925Z,16.87
2019-02-20T02:56:00.131Z,19.73
2019-02-20T02:58:32.620Z,19.23
2019-02-20T03:01:02.393Z,16.10
2019-02-20T03:03:30.578Z,15.30
2019-02-20T03:05:58.810Z,15.57
2019-02-20T03:08:29.247Z,15.67
2019-02-20T03:10:58.466Z,18.97
2019-02-20T03:13:28.341Z,16.87
2019-02-20T03:15:57.221Z,17.37
2019-02-20T03:18:25.071Z,13.50
2019-02-20T03:20:53.233Z,18.10
2019-02-20T03:23:22.739Z,20.60
2019-02-20T03:25:50.680Z,17.63
2019-02-20T03:28:20.117Z,18.23
2019-02-20T03:30:49.659Z,19.67
2019-02-20T03:33:17.662Z,19.27
2019-02-20T03:35:46.789Z,18.90
2019-02-20T03:38:14.771Z,20.67
2019-02-20T03:40:42.533Z,20.27
2019-02-20T03:43:10.669Z,24.63
2019-02-20T03:45:39.941Z,28.20
2019-02-20T03:48:09.167Z,26.30
2019-02-20T03:50:38.261Z,24.30
2019-02-20T03:53:06.477Z,23.77
2019-02-20T03:55:34.728Z,22.33
2019-02-20T04:34:27.675Z,24.47
2019-02-20T04:37:00.226Z,20.37
2019-02-20T04:39:32.982Z,21.10
2019-02-20T04:42:01.607Z,21.63
2019-02-20T04:44:29.666Z,20.60
2019-02-20T04:46:59.548Z,19.07
2019-02-20T04:49:29.211Z,20.30
2019-02-20T04:52:00.077Z,22.63
2019-02-20T04:54:29.623Z,24.33
2019-02-20T04:56:58.686Z,27.63
2019-02-20T04:59:29.930Z,27.47
2019-02-20T05:01:59.313Z,25.30
2019-02-20T05:04:29.537Z,26.33
2019-02-20T05:06:58.698Z,28.27
2019-02-20T05:09:29.963Z,30.20
2019-02-20T05:11:59.823Z,22.83
2019-02-20T05:14:36.719Z,29.73
2019-02-20T05:17:05.891Z,30.20
2019-02-20T05:19:42.385Z,24.23
2019-02-20T05:22:23.920Z,25.50
2019-02-20T05:24:52.653Z,26.63
2019-02-20T05:27:24.037Z,27.43
2019-02-20T05:30:00.373Z,26.17
2019-02-20T05:33:04.806Z,28.10
2019-02-20T05:36:42.606Z,25.63
2019-02-20T05:39:59.005Z,25.13
2019-02-20T05:42:40.776Z,25.50
2019-02-20T05:45:10.514Z,24.20
2019-02-20T05:48:02.008Z,31.40
2019-02-20T05:50:47.360Z,31.00
2019-02-20T05:53:17.072Z,29.70
2019-02-20T05:55:51.071Z,29.60
2019-02-20T05:58:20.732Z,31.40
2019-02-20T06:00:50.735Z,30.40
2019-02-20T06:03:25.920Z,31.40
2019-02-20T06:05:57.089Z,28.93
2019-02-20T06:08:35.739Z,32.80
2019-02-20T06:11:14.454Z,29.87
2019-02-20T06:13:35.564Z,29.80
2019-02-20T06:16:41.298Z,33.23
2019-02-20T06:19:20.383Z,33.17
2019-02-20T06:21:52.668Z,33.57
2019-02-20T06:24:43.923Z,32.27
2019-02-20T06:27:14.698Z,29.00
2019-02-20T06:30:00.992Z,34.43
2019-02-20T06:32:43.413Z,31.37
2019-02-20T06:35:27.084Z,34.03
2019-02-20T06:38:11.110Z,28.93
2019-02-20T06:40:57.316Z,39.17
2019-02-20T06:43:32.872Z,28.83
2019-02-20T06:46:31.173Z,35.90
2019-02-20T06:49:28.578Z,30.03
2019-02-20T06:51:56.997Z,33.47
2019-02-20T06:55:21.506Z,35.73
2019-02-20T06:58:26.317Z,36.87
2019-02-20T07:00:56.711Z,37.50
2019-02-20T07:03:25.246Z,36.13
2019-02-20T07:06:20.361Z,34.03
2019-02-20T07:09:15.875Z,28.43
2019-02-20T07:12:21.608Z,34.60
2019-02-20T07:15:32.977Z,31.20
2019-02-20T07:18:51.753Z,31.27
2019-02-20T07:22:26.282Z,26.50
2019-02-20T07:25:31.737Z,28.97
2019-02-20T07:28:49.324Z,30.60
2019-02-20T07:31:17.578Z,40.00
2019-02-20T07:33:45.652Z,27.93
2019-02-20T07:36:14.461Z,29.23
2019-02-20T07:38:50.157Z,28.23
2019-02-20T07:41:27.922Z,28.30
2019-02-20T07:44:09.905Z,28.10
2019-02-20T07:46:47.528Z,22.90
2019-02-20T07:49:16.128Z,29.23
2019-02-20T07:51:59.930Z,25.53
2019-02-20T07:54:43.382Z,33.40
2019-02-20T07:57:14.890Z,30.93
2019-02-20T07:59:45.218Z,24.93
2019-02-20T08:02:16.327Z,26.70
2019-02-20T08:04:48.625Z,25.83
2019-02-20T08:07:22.449Z,28.73
2019-02-20T08:09:53.865Z,27.07
2019-02-20T08:12:56.507Z,25.87
2019-02-20T08:15:34.757Z,26.57
2019-02-20T08:18:05.948Z,25.77
2019-02-20T08:20:35.690Z,24.53
2019-02-20T08:23:11.759Z,25.13
2019-02-20T08:25:42.715Z,22.60
2019-02-20T08:28:16.957Z,24.47
2019-02-20T08:31:00.070Z,27.20
2019-02-20T08:33:35.125Z,27.07
2019-02-20T08:36:04.865Z,28.23
2019-02-20T08:38:35.001Z,27.33
2019-02-20T08:41:05.149Z,29.80
2019-02-20T08:43:38.534Z,24.17
2019-02-20T08:46:11.025Z,24.70
2019-02-20T08:48:49.053Z,24.40
2019-02-20T08:51:17.904Z,36.60
2019-02-20T08:53:46.579Z,28.60
2019-02-20T08:56:18.376Z,31.47
2019-02-20T08:58:48.819Z,28.33
2019-02-20T09:01:35.436Z,28.40
2019-02-20T09:04:32.794Z,24.60
2019-02-20T09:07:37.805Z,25.20
2019-02-20T09:10:11.197Z,22.50
2019-02-20T09:12:43.623Z,21.30
2019-02-20T09:19:41.930Z,32.03
2019-02-20T09:22:19.591Z,26.43
2019-02-20T09:29:01.523Z,30.00
2019-02-20T09:31:42.926Z,20.90
2019-02-20T09:34:34.159Z,17.73
2019-02-20T09:37:28.626Z,21.90
2019-02-20T09:43:52.459Z,20.03
2019-02-20T09:46:21.015Z,21.93
2019-02-20T09:48:50.056Z,24.27
2019-02-20T09:51:20.333Z,21.90
2019-02-20T09:53:57.663Z,24.03
2019-02-20T09:56:31.411Z,20.37
2019-02-20T09:58:59.872Z,26.40
2019-02-20T10:01:28.129Z,22.30
2019-02-20T10:04:25.219Z,24.27
2019-02-20T10:07:25.701Z,23.10
2019-02-20T10:09:59.789Z,25.73
2019-02-20T10:12:29.757Z,22.77
2019-02-20T10:16:12.701Z,23.67
2019-02-20T10:22:30.772Z,18.53
2019-02-20T10:25:04.482Z,14.33
2019-02-20T10:30:53.181Z,18.10
2019-02-20T10:33:44.898Z,34.43
2019-02-20T10:36:16.868Z,21.67
2019-02-20T10:38:48.666Z,18.27
2019-02-20T10:41:20.269Z,18.93
2019-02-20T10:43:51.989Z,19.87
2019-02-20T10:46:27.404Z,19.77
2019-02-20T10:49:03.082Z,23.73
2019-02-20T10:51:32.338Z,22.93
2019-02-20T10:55:11.975Z,18.50
2019-02-20T10:58:58.290Z,18.17
2019-02-20T11:04:14.529Z,20.13
2019-02-20T11:11:32.429Z,22.10
2019-02-20T11:14:24.958Z,18.13
2019-02-20T11:17:38.922Z,15.47
2019-02-20T11:20:13.911Z,15.20
2019-02-20T11:22:51.541Z,17.37
2019-02-20T11:25:26.834Z,20.67
2019-02-20T11:27:59.049Z,18.13
2019-02-20T11:30:32.569Z,19.17
2019-02-20T11:33:03.465Z,14.10
2019-02-20T11:36:02.371Z,20.57
2019-02-20T11:38:48.258Z,20.20
2019-02-20T11:41:19.452Z,21.43
2019-02-20T11:48:06.193Z,18.43
2019-02-20T11:50:52.758Z,17.57
2019-02-20T11:53:37.011Z,19.80
2019-02-20T11:56:33.037Z,15.03
2019-02-20T11:59:12.580Z,12.70
2019-02-20T12:01:48.134Z,13.90
2019-02-20T12:04:18.318Z,17.37
2019-02-20T12:07:34.447Z,17.83
2019-02-20T12:10:47.972Z,10.53
2019-02-20T12:14:32.487Z,16.30
2019-02-20T12:20:53.514Z,12.37
2019-02-20T12:23:36.395Z,17.50
2019-02-20T12:26:04.269Z,12.27
2019-02-20T12:28:47.274Z,13.80
2019-02-20T12:35:15.998Z,13.93
2019-02-20T12:38:31.284Z,12.90
2019-02-20T12:41:00.457Z,15.97
2019-02-20T12:43:44.564Z,12.23
2019-02-20T12:46:17.273Z,17.73
2019-02-20T12:48:47.277Z,9.17
2019-02-20T12:55:17.277Z,12.13
2019-02-20T12:57:45.743Z,21.60
2019-02-20T13:00:21.166Z,10.33
2019-02-20T13:02:49.045Z,12.00
2019-02-20T13:05:17.315Z,15.53
2019-02-20T13:07:50.667Z,10.80
2019-02-20T13:10:21.855Z,10.27
2019-02-20T13:13:52.591Z,12.17
2019-02-20T13:20:52.494Z,14.50
2019-02-20T13:26:53.031Z,13.50
2019-02-20T13:29:39.488Z,10.80
2019-02-20T13:39:33.996Z,12.43
2019-02-20T13:42:07.751Z,12.03
2019-02-20T13:44:45.886Z,16.33
2019-02-20T13:51:10.949Z,13.83
2019-02-20T13:53:46.222Z,16.50
2019-02-20T13:56:09.922Z,17.80
2019-02-20T13:58:52.692Z,11.97
2019-02-20T14:01:21.198Z,11.63
2019-02-20T14:03:55.981Z,16.57
2019-02-20T14:06:28.391Z,11.07
2019-02-20T14:09:07.971Z,13.17
2019-02-20T14:11:38.595Z,15.87
2019-02-20T14:18:01.750Z,16.03
2019-02-20T14:21:23.044Z,13.87
2019-02-20T14:28:44.336Z,12.47
2019-02-20T14:31:57.947Z,10.43
2019-02-20T14:34:36.636Z,16.40
2019-02-20T14:37:10.579Z,14.20
2019-02-20T14:39:49.690Z,16.90
2019-02-20T14:42:28.990Z,14.03
2019-02-20T14:44:58.150Z,17.83
2019-02-20T14:47:26.544Z,15.47
2019-02-20T14:50:53.539Z,15.20
2019-02-20T14:53:54.235Z,13.60
2019-02-20T14:56:36.621Z,11.23
2019-02-20T14:59:05.638Z,11.83
2019-02-20T15:01:36.008Z,16.57
2019-02-20T15:04:40.668Z,15.00
2019-02-20T15:07:18.209Z,13.67
2019-02-20T15:09:47.301Z,19.03
2019-02-20T15:12:18.606Z,14.73
2019-02-20T15:15:10.305Z,12.33
2019-02-20T15:17:58.940Z,20.60
2019-02-20T15:20:58.083Z,15.03
2019-02-20T15:28:33.478Z,14.17
2019-02-20T15:34:42.125Z,22.93
2019-02-20T15:37:10.764Z,16.17
2019-02-20T15:39:47.438Z,14.00
2019-02-20T15:42:26.226Z,15.73
2019-02-20T15:44:57.548Z,11.53
2019-02-20T15:47:50.183Z,12.23
2019-02-20T15:50:18.686Z,16.00
2019-02-20T15:52:47.069Z,14.10
2019-02-20T15:55:36.345Z,16.00
2019-02-20T15:58:27.277Z,14.80
2019-02-20T16:00:55.894Z,18.57
2019-02-20T16:03:40.848Z,16.70
2019-02-20T16:06:23.121Z,16.33
2019-02-20T16:08:52.736Z,20.33
2019-02-20T16:14:31.030Z,15.13
2019-02-20T16:21:44.722Z,13.87
2019-02-20T16:24:23.538Z,17.53
2019-02-20T16:27:23.402Z,19.13
2019-02-20T16:30:06.573Z,20.13
2019-02-20T16:32:34.828Z,27.70
2019-02-20T16:35:10.509Z,20.47
2019-02-20T16:37:55.390Z,17.40
2019-02-20T16:40:24.257Z,17.83
2019-02-20T16:43:33.123Z,16.83
2019-02-20T16:46:01.741Z,15.83
2019-02-20T16:48:33.026Z,18.87
2019-02-20T16:51:03.498Z,19.77
2019-02-20T16:53:37.149Z,15.03
2019-02-20T16:56:46.365Z,24.00
2019-02-20T16:59:33.984Z,25.00
2019-02-20T17:03:05.301Z,19.60
2019-02-20T17:06:58.918Z,24.87
2019-02-20T17:09:35.083Z,26.67
2019-02-20T17:12:20.060Z,24.00
2019-02-20T17:18:50.109Z,17.20
2019-02-20T17:21:48.926Z,20.13
2019-02-20T17:24:30.781Z,14.00
2019-02-20T17:26:59.078Z,17.67
2019-02-20T17:30:08.237Z,18.77
2019-02-20T17:32:42.757Z,21.33
2019-02-20T17:35:12.785Z,21.77
2019-02-20T17:37:45.021Z,27.13
2019-02-20T17:40:19.546Z,22.23
2019-02-20T17:43:20.723Z,24.83
2019-02-20T17:45:48.846Z,18.33
2019-02-20T17:48:19.156Z,22.40
2019-02-20T17:50:52.540Z,24.73
2019-02-20T17:53:34.706Z,22.27
2019-02-20T17:56:15.694Z,19.53
2019-02-20T17:59:08.797Z,27.13
2019-02-20T18:02:22.119Z,44.70
2019-02-20T18:05:05.251Z,36.30
2019-02-20T18:07:51.430Z,35.43
2019-02-20T18:10:22.468Z,25.10
2019-02-20T18:12:52.967Z,32.27
2019-02-20T18:15:22.226Z,23.63
2019-02-20T18:17:51.689Z,30.00
2019-02-20T18:20:36.163Z,32.20
2019-02-20T18:23:05.239Z,35.90
2019-02-20T18:31:09.592Z,33.80
2019-02-20T18:40:02.778Z,41.30
2019-02-20T18:42:30.655Z,26.47
2019-02-20T18:44:59.886Z,27.73
2019-02-20T18:47:30.163Z,30.50
2019-02-20T18:49:59.949Z,30.00
2019-02-20T18:52:30.258Z,26.17
2019-02-20T18:55:05.632Z,26.07
2019-02-20T18:57:34.355Z,20.33
2019-02-20T19:00:10.847Z,20.53
2019-02-20T19:02:38.530Z,23.57
2019-02-20T19:05:14.253Z,22.53
2019-02-20T19:07:41.876Z,27.57
2019-02-20T19:10:15.422Z,36.60
2019-02-20T19:13:19.443Z,34.43
2019-02-20T19:16:33.758Z,30.60
2019-02-20T19:19:32.454Z,32.93
2019-02-20T19:22:23.079Z,28.93
2019-02-20T19:25:36.811Z,25.30
2019-02-20T19:28:18.619Z,24.47
2019-02-20T19:31:15.281Z,26.80
2019-02-20T19:33:58.661Z,22.07
2019-02-20T19:36:59.743Z,23.37
2019-02-20T19:39:59.569Z,22.33
2019-02-20T19:43:27.105Z,22.83
2019-02-20T19:46:24.429Z,21.97
2019-02-20T19:49:12.314Z,21.40
2019-02-20T19:52:23.621Z,19.83
2019-02-20T19:55:17.773Z,22.90
2019-02-20T19:58:12.903Z,21.70
2019-02-20T20:01:27.535Z,22.27
2019-02-20T20:04:33.115Z,21.53
2019-02-20T20:07:45.697Z,23.27
2019-02-20T20:10:43.394Z,21.33
2019-02-20T20:13:41.805Z,19.50
2019-02-20T20:16:51.215Z,19.77
2019-02-20T20:19:50.939Z,20.20
2019-02-20T20:22:56.257Z,19.60
2019-02-20T20:26:02.689Z,20.83
2019-02-20T20:32:27.069Z,22.23
2019-02-20T20:35:27.346Z,17.83
2019-02-20T20:41:26.000Z,19.80
2019-02-20T20:44:48.632Z,23.83
2019-02-20T20:48:12.053Z,19.10
2019-02-20T20:51:14.049Z,20.33
2019-02-20T20:54:41.385Z,22.63
2019-02-20T20:58:27.535Z,18.03
2019-02-20T21:01:28.401Z,21.80
2019-02-20T21:04:39.183Z,27.00
2019-02-20T21:07:38.207Z,20.67
2019-02-20T21:10:49.161Z,24.97
2019-02-20T21:14:03.828Z,24.07
2019-02-20T21:17:44.068Z,27.20
2019-02-20T21:20:26.895Z,21.70
2019-02-20T21:23:38.894Z,20.10
2019-02-20T21:26:51.728Z,21.93
2019-02-20T21:29:50.662Z,22.60
2019-02-20T21:32:55.943Z,24.17
2019-02-20T21:35:55.227Z,26.07
2019-02-20T21:39:11.936Z,21.27
2019-02-20T21:41:59.632Z,21.20
2019-02-20T21:44:45.581Z,22.87
2019-02-20T21:47:54.235Z,22.17
2019-02-20T21:51:16.034Z,21.50
2019-02-20T21:54:26.588Z,20.87
2019-02-20T21:57:09.715Z,26.73
2019-02-20T22:00:20.089Z,22.30
2019-02-20T22:03:10.801Z,24.30
2019-02-20T22:06:19.534Z,26.33
2019-02-20T22:09:03.368Z,23.17
2019-02-20T22:12:07.183Z,20.13
2019-02-20T22:15:12.135Z,25.80
2019-02-20T22:17:58.408Z,23.73
2019-02-20T22:21:27.249Z,23.20
2019-02-20T22:24:23.282Z,25.90
2019-02-20T22:27:32.609Z,19.60
2019-02-20T22:31:05.852Z,26.97
2019-02-20T22:33:42.748Z,25.60
2019-02-20T22:36:41.259Z,21.70
2019-02-20T22:39:43.950Z,20.70
2019-02-20T22:42:54.563Z,20.13
2019-02-20T22:46:09.946Z,25.27
2019-02-20T22:49:17.765Z,22.47
2019-02-20T22:52:25.787Z,18.37
2019-02-20T22:55:40.534Z,24.63
2019-02-20T22:58:53.192Z,26.50
2019-02-20T23:02:03.663Z,20.10
2019-02-20T23:05:01.156Z,21.13
2019-02-20T23:08:22.532Z,20.30
2019-02-20T23:11:33.148Z,19.67
2019-02-20T23:14:49.284Z,18.63
2019-02-20T23:17:22.516Z,19.13
2019-02-20T23:19:59.844Z,26.93
2019-02-20T23:22:29.373Z,20.93
2019-02-20T23:25:01.068Z,22.77
2019-02-20T23:27:31.097Z,27.33
2019-02-20T23:30:53.746Z,24.17
2019-02-20T23:33:51.898Z,28.60
2019-02-20T23:36:20.740Z,23.83
2019-02-20T23:38:49.511Z,22.93
2019-02-20T23:41:18.115Z,24.83
2019-02-20T23:43:47.941Z,23.73
2019-02-20T23:46:16.158Z,23.23
2019-02-20T23:48:45.699Z,22.53
2019-02-20T23:51:14.060Z,23.37
2019-02-20T23:53:43.885Z,20.10
2019-02-20T23:56:13.194Z,20.67
2019-02-20T23:58:41.329Z,20.93
